Time;durP1;ratioP1;P1;durP2;ratioP2;P2;SDS_P1;SDS_P2;PMS_P1;PMS_P2;Temp;Humidity;BMP_temperature;BMP_pressure;BME280_temperature;BME280_humidity;BME280_pressure;Samples;Min_cycle;Max_cycle;Signal;HPM_P1;HPM_P2
2021/07/21 00:00:52;;;;;;;4.60;2.60;;;10.90;95.30;;;;;;5072658;28;20073;-60
2021/07/21 00:03:21;;;;;;;4.60;2.67;;;11.00;94.90;;;;;;5072687;28;20024;-60
2021/07/21 00:05:49;;;;;;;7.35;2.80;;;11.10;94.20;;;;;;5071483;28;20515;-61
2021/07/21 00:08:16;;;;;;;3.58;2.50;;;11.40;94.90;;;;;;5072702;28;20024;-60
2021/07/21 00:10:46;;;;;;;4.45;2.88;;;11.40;94.80;;;;;;5072703;28;20029;-60
2021/07/21 00:13:32;;;;;;;3.38;2.75;;;11.30;94.30;;;;;;5073789;28;20027;-61
2021/07/21 00:16:09;;;;;;;5.28;2.97;;;11.50;95.10;;;;;;5072618;28;20036;-60
2021/07/21 00:21:14;;;;;;;5.25;3.00;;;11.80;93.80;;;;;;5072408;28;20033;-60
2021/07/21 00:23:42;;;;;;;4.03;2.80;;;12.00;93.70;;;;;;5071158;28;20507;-60
2021/07/21 00:26:10;;;;;;;4.47;2.90;;;12.20;93.30;;;;;;5072468;28;20028;-59
2021/07/21 00:28:41;;;;;;;4.50;3.10;;;12.30;93.30;;;;;;5072423;28;20074;-64
2021/07/21 00:31:10;;;;;;;3.63;3.30;;;12.30;93.00;;;;;;5072410;28;20058;-60
2021/07/21 00:33:39;;;;;;;19.38;4.25;;;12.40;93.90;;;;;;5072353;28;20101;-59
2021/07/21 00:36:06;;;;;;;8.93;3.97;;;12.40;93.50;;;;;;5072336;28;20021;-58
2021/07/21 00:38:33;;;;;;;4.13;3.28;;;12.40;93.30;;;;;;5072501;28;20024;-57
2021/07/21 00:41:01;;;;;;;4.53;3.08;;;12.30;93.10;;;;;;5071017;28;20074;-59
2021/07/21 00:43:29;;;;;;;3.10;2.80;;;12.40;93.40;;;;;;5072428;28;20017;-59
2021/07/21 00:45:57;;;;;;;4.18;2.97;;;12.60;93.40;;;;;;5072693;28;20103;-58
2021/07/21 00:48:24;;;;;;;6.50;2.70;;;12.60;93.40;;;;;;5072325;28;20012;-59
2021/07/21 00:50:55;;;;;;;6.82;2.85;;;12.90;93.70;;;;;;5072272;28;20017;-58
2021/07/21 00:53:22;;;;;;;;;;;12.70;93.30;;;;;;5072738;28;20585;-58
2021/07/21 00:55:51;;;;;;;7.18;2.60;;;13.00;93.20;;;;;;5074530;28;19920;-56
2021/07/21 00:58:18;;;;;;;6.22;3.08;;;13.10;93.40;;;;;;5075867;28;20012;-56
2021/07/21 01:00:46;;;;;;;5.88;2.75;;;13.30;93.90;;;;;;5075840;28;20139;-59
2021/07/21 01:03:13;;;;;;;3.78;2.72;;;13.50;94.30;;;;;;5075699;28;20036;-58
2021/07/21 01:05:42;;;;;;;5.40;2.40;;;13.50;92.80;;;;;;5075792;28;20028;-59
2021/07/21 01:08:12;;;;;;;4.20;2.97;;;13.50;93.10;;;;;;5075936;28;20024;-52
2021/07/21 01:10:50;;;;;;;5.68;3.25;;;13.70;92.80;;;;;;5075621;28;20397;-55
2021/07/21 01:13:25;;;;;;;7.80;3.55;;;13.90;92.70;;;;;;5075791;28;20042;-56
2021/07/21 01:16:06;;;;;;;5.45;3.53;;;13.60;92.80;;;;;;5075497;28;20036;-56
2021/07/21 01:18:44;;;;;;;4.50;3.20;;;13.50;92.60;;;;;;5075575;28;20039;-53
2021/07/21 01:21:48;;;;;;;4.45;3.10;;;13.30;93.60;;;;;;5075387;28;20056;-56
2021/07/21 01:24:27;;;;;;;6.13;3.60;;;13.40;93.50;;;;;;5075651;28;20473;-59
2021/07/21 01:27:32;;;;;;;6.28;3.50;;;13.20;93.00;;;;;;5075321;28;20025;-60
2021/07/21 01:30:11;;;;;;;5.93;3.33;;;13.10;94.30;;;;;;5033232;28;20025;-63
2021/07/21 01:32:43;;;;;;;10.60;3.97;;;13.40;93.60;;;;;;5070439;28;20098;-60
2021/07/21 01:35:17;;;;;;;7.18;3.30;;;13.40;93.00;;;;;;5075418;28;20574;-60
2021/07/21 01:38:04;;;;;;;6.50;3.10;;;13.20;93.40;;;;;;5075261;28;20025;-60
2021/07/21 01:40:51;;;;;;;5.50;3.25;;;13.60;93.50;;;;;;5075182;28;20488;-58
2021/07/21 01:43:25;;;;;;;7.22;3.20;;;13.50;92.50;;;;;;5075171;28;20053;-58
2021/07/21 01:45:54;;;;;;;7.28;3.30;;;13.50;93.10;;;;;;5075050;28;20029;-60
2021/07/21 01:48:23;;;;;;;5.70;3.45;;;13.60;93.10;;;;;;5074948;28;20437;-60
2021/07/21 01:50:55;;;;;;;7.40;3.42;;;13.70;93.20;;;;;;5074868;28;20099;-60
2021/07/21 01:53:23;;;;;;;5.50;3.05;;;13.40;93.10;;;;;;5074923;28;20503;-61
2021/07/21 01:55:51;;;;;;;7.00;3.30;;;13.40;93.40;;;;;;5074606;28;20040;-61
2021/07/21 01:58:20;;;;;;;6.10;3.30;;;13.20;93.30;;;;;;5074862;28;20021;-61
2021/07/21 02:00:50;;;;;;;6.93;3.72;;;13.40;93.30;;;;;;5074846;28;20038;-61
2021/07/21 02:03:17;;;;;;;;;;;13.60;93.90;;;;;;5075221;28;20016;-60
2021/07/21 02:05:46;;;;;;;4.88;3.60;;;13.60;93.10;;;;;;5074535;28;19904;-59
2021/07/21 02:08:17;;;;;;;6.90;3.83;;;13.50;93.10;;;;;;5074357;28;20084;-59
2021/07/21 02:10:46;;;;;;;9.35;3.97;;;13.40;94.00;;;;;;5074615;28;20013;-61
2021/07/21 02:13:16;;;;;;;5.05;3.88;;;13.50;93.60;;;;;;5074634;28;20032;-62
2021/07/21 02:15:46;;;;;;;6.35;3.80;;;13.40;93.30;;;;;;5074418;28;20024;-56
2021/07/21 02:18:18;;;;;;;4.93;3.35;;;13.70;93.40;;;;;;5074323;28;20406;-55
2021/07/21 02:20:47;;;;;;;6.90;3.75;;;13.80;92.90;;;;;;5074280;28;20095;-56
2021/07/21 02:23:16;;;;;;;5.55;3.95;;;13.70;93.50;;;;;;5074196;28;20025;-56
2021/07/21 02:25:43;;;;;;;6.65;3.30;;;13.60;93.10;;;;;;5074092;28;20025;-55
2021/07/21 02:28:11;;;;;;;5.40;3.70;;;13.40;92.80;;;;;;5074230;28;20095;-55
2021/07/21 02:30:38;;;;;;;3.58;3.20;;;13.50;93.70;;;;;;5074127;28;20021;-56
2021/07/21 02:33:13;;;;;;;5.70;3.03;;;13.50;92.90;;;;;;5072878;28;20028;-56
2021/07/21 02:35:41;;;;;;;5.20;3.08;;;13.90;92.90;;;;;;5074033;28;20366;-58
2021/07/21 02:38:09;;;;;;;6.13;3.30;;;13.80;92.40;;;;;;5074244;28;20025;-58
2021/07/21 02:40:37;;;;;;;5.80;3.28;;;13.70;92.00;;;;;;5073916;28;20055;-57
2021/07/21 02:43:04;;;;;;;4.60;3.38;;;13.90;92.40;;;;;;5073815;28;20111;-59
2021/07/21 02:45:31;;;;;;;7.18;3.00;;;14.40;92.60;;;;;;5073826;28;20056;-58
2021/07/21 02:47:59;;;;;;;4.82;4.28;;;14.50;91.40;;;;;;5073743;28;20022;-58
2021/07/21 02:50:26;;;;;;;6.20;3.65;;;14.20;91.10;;;;;;5073823;28;20086;-58
2021/07/21 02:53:04;;;;;;;5.38;4.25;;;14.10;92.30;;;;;;5073612;28;20086;-61
2021/07/21 02:55:39;;;;;;;5.95;3.50;;;14.40;92.10;;;;;;5073360;28;20442;-60
2021/07/21 02:58:34;;;;;;;6.05;3.53;;;14.10;92.00;;;;;;5073599;28;20054;-60
2021/07/21 03:01:03;;;;;;;4.00;3.35;;;14.20;92.00;;;;;;5073428;28;20025;-59
2021/07/21 03:03:33;;;;;;;3.35;2.90;;;14.10;91.70;;;;;;5073464;28;20078;-62
2021/07/21 03:06:10;;;;;;;4.18;3.08;;;14.10;92.90;;;;;;5073323;28;20147;-61
2021/07/21 03:08:39;;;;;;;4.35;3.15;;;14.00;91.80;;;;;;5073435;28;20012;-61
2021/07/21 03:11:06;;;;;;;5.63;3.17;;;14.00;91.90;;;;;;5073332;28;20024;-61
2021/07/21 03:13:45;;;;;;;4.40;3.22;;;14.10;92.10;;;;;;5072124;28;20012;-60
2021/07/21 03:16:15;;;;;;;4.60;3.30;;;14.10;92.40;;;;;;5073086;28;20029;-62
2021/07/21 03:18:47;;;;;;;8.18;2.50;;;13.90;93.40;;;;;;5072626;28;20481;-61
2021/07/21 03:21:16;;;;;;;4.07;2.90;;;13.90;93.20;;;;;;5073079;28;20078;-61
2021/07/21 03:23:45;;;;;;;4.47;3.53;;;14.10;92.70;;;;;;5073282;28;20028;-61
2021/07/21 03:26:13;;;;;;;5.32;2.83;;;14.00;92.60;;;;;;5073211;28;20485;-61
2021/07/21 03:28:42;;;;;;;3.33;3.00;;;14.00;93.00;;;;;;5073228;28;20016;-61
2021/07/21 03:31:11;;;;;;;7.10;2.92;;;14.30;93.30;;;;;;5071853;28;20111;-60
2021/07/21 03:33:42;;;;;;;5.53;3.05;;;14.30;92.10;;;;;;5073320;28;20113;-60
2021/07/21 03:36:11;;;;;;;8.45;3.30;;;14.50;92.00;;;;;;5072926;28;20111;-60
2021/07/21 03:38:41;;;;;;;3.13;2.63;;;14.90;92.10;;;;;;5073057;28;20388;-61
2021/07/21 03:41:10;;;;;;;5.38;2.90;;;14.50;91.30;;;;;;5073052;28;20020;-59
2021/07/21 03:43:38;;;;;;;6.70;3.33;;;14.60;91.70;;;;;;5072938;28;20428;-60
2021/07/21 03:46:06;;;;;;;5.07;2.70;;;14.60;92.00;;;;;;5073050;28;20039;-61
2021/07/21 03:48:34;;;;;;;7.03;3.10;;;14.50;92.80;;;;;;5072962;28;20028;-59
2021/07/21 03:51:02;;;;;;;4.75;3.03;;;14.50;92.80;;;;;;5072794;28;20024;-60
2021/07/21 03:53:31;;;;;;;6.70;4.03;;;14.70;92.60;;;;;;5072868;28;20024;-60
2021/07/21 03:55:59;;;;;;;10.32;2.90;;;14.90;91.50;;;;;;5072542;28;20045;-60
2021/07/21 03:58:26;;;;;;;5.18;2.65;;;15.00;92.40;;;;;;5072855;28;20119;-61
2021/07/21 04:00:56;;;;;;;3.70;2.80;;;15.00;91.90;;;;;;5072697;28;20094;-61
2021/07/21 04:03:25;;;;;;;6.07;3.40;;;14.90;90.90;;;;;;5072977;28;20027;-64
2021/07/21 04:05:58;;;;;;;4.47;2.63;;;14.60;91.20;;;;;;5072782;28;20024;-64
2021/07/21 04:08:26;;;;;;;8.90;2.80;;;14.40;91.00;;;;;;5072755;28;20480;-63
2021/07/21 04:10:54;;;;;;;3.78;2.50;;;14.30;91.10;;;;;;5072559;28;20053;-62
2021/07/21 04:13:24;;;;;;;5.65;2.65;;;14.40;91.90;;;;;;5072684;28;20044;-62
2021/07/21 04:15:55;;;;;;;4.80;2.83;;;14.50;91.00;;;;;;5072949;28;20499;-63
2021/07/21 04:18:23;;;;;;;3.22;2.92;;;14.70;90.60;;;;;;5072703;28;20381;-63
2021/07/21 04:20:52;;;;;;;6.03;3.25;;;15.00;91.20;;;;;;5072606;28;20130;-62
2021/07/21 04:23:21;;;;;;;4.22;3.10;;;14.80;91.00;;;;;;5072532;28;20552;-62
2021/07/21 04:25:51;;;;;;;6.20;2.72;;;14.80;91.60;;;;;;5072540;28;20385;-65
2021/07/21 04:28:19;;;;;;;6.20;3.17;;;14.90;91.40;;;;;;5072463;28;20107;-63
2021/07/21 04:30:47;;;;;;;6.88;2.88;;;15.00;91.90;;;;;;5075005;28;20016;-64
2021/07/21 04:33:15;;;;;;;5.80;3.35;;;14.80;91.20;;;;;;5076425;28;20028;-64
2021/07/21 04:35:42;;;;;;;5.32;3.22;;;14.60;91.10;;;;;;5076240;28;20377;-66
2021/07/21 04:38:10;;;;;;;5.22;3.20;;;14.50;90.80;;;;;;5076487;28;20107;-65
2021/07/21 04:40:43;;;;;;;3.67;2.80;;;14.50;92.40;;;;;;5076200;28;20126;-60
2021/07/21 04:43:11;;;;;;;4.90;3.17;;;14.40;91.10;;;;;;5076036;28;20370;-61
2021/07/21 04:45:50;;;;;;;5.35;3.08;;;14.20;90.70;;;;;;5076132;28;20478;-61
2021/07/21 04:48:18;;;;;;;9.20;3.38;;;14.20;90.90;;;;;;5076099;28;20027;-65
2021/07/21 04:50:48;;;;;;;4.97;2.60;;;14.30;91.30;;;;;;5076017;28;20025;-63
2021/07/21 04:53:16;;;;;;;3.65;2.80;;;14.30;91.30;;;;;;5076005;28;20031;-62
2021/07/21 04:55:47;;;;;;;6.20;3.30;;;14.30;91.20;;;;;;5075811;28;20052;-61
2021/07/21 04:58:17;;;;;;;5.32;2.88;;;14.30;91.30;;;;;;5075899;28;20024;-62
2021/07/21 05:00:45;;;;;;;5.85;2.90;;;14.20;90.70;;;;;;5075889;28;20028;-66
2021/07/21 05:03:12;;;;;;;5.28;3.70;;;14.10;90.90;;;;;;5075678;28;20036;-65
2021/07/21 05:05:40;;;;;;;8.68;3.30;;;14.10;90.90;;;;;;5075816;28;20025;-64
2021/07/21 05:08:07;;;;;;;3.30;3.00;;;14.10;90.50;;;;;;5075718;28;20056;-65
2021/07/21 05:10:35;;;;;;;6.20;3.60;;;14.10;90.20;;;;;;5075717;28;20539;-65
2021/07/21 05:13:03;;;;;;;4.72;3.10;;;14.20;90.70;;;;;;5075731;28;20029;-67
2021/07/21 05:15:31;;;;;;;6.13;3.45;;;14.10;89.70;;;;;;5076336;28;20052;-68
2021/07/21 05:17:59;;;;;;;3.50;3.05;;;14.10;90.80;;;;;;5075722;28;20042;-67
2021/07/21 05:20:26;;;;;;;6.43;3.20;;;14.00;90.10;;;;;;5075903;28;20085;-65
2021/07/21 05:22:54;;;;;;;4.68;3.10;;;14.00;90.10;;;;;;5075623;28;20025;-64
2021/07/21 05:25:21;;;;;;;4.95;2.80;;;14.00;90.40;;;;;;5075450;28;20020;-59
2021/07/21 05:27:48;;;;;;;4.53;2.42;;;13.90;90.00;;;;;;5075423;28;20048;-60
2021/07/21 05:30:16;;;;;;;4.72;2.50;;;13.90;90.50;;;;;;5075548;28;20020;-61
2021/07/21 05:32:43;;;;;;;3.67;2.10;;;13.90;90.00;;;;;;5075131;28;20027;-60
2021/07/21 05:35:11;;;;;;;3.63;2.40;;;13.90;88.80;;;;;;5075302;28;20043;-59
2021/07/21 05:37:41;;;;;;;4.65;3.15;;;13.90;89.00;;;;;;5075179;28;20095;-60
2021/07/21 05:40:09;;;;;;;3.47;2.72;;;13.80;89.00;;;;;;5074875;28;20069;-60
2021/07/21 05:42:37;;;;;;;5.32;2.70;;;13.80;90.10;;;;;;5075087;28;20386;-60
2021/07/21 05:45:05;;;;;;;7.13;2.78;;;13.80;90.60;;;;;;5075214;28;20024;-59
2021/07/21 05:47:32;;;;;;;2.97;2.35;;;13.70;90.50;;;;;;5075182;28;20399;-60
2021/07/21 05:49:59;;;;;;;5.32;2.67;;;13.70;91.50;;;;;;5074982;28;20016;-58
2021/07/21 05:52:27;;;;;;;3.88;2.40;;;13.60;91.10;;;;;;5074903;28;20028;-59
2021/07/21 05:54:54;;;;;;;6.22;2.80;;;13.60;90.60;;;;;;5073800;28;20078;-59
2021/07/21 05:57:21;;;;;;;3.92;2.50;;;13.50;90.40;;;;;;5075057;28;20128;-59
2021/07/21 05:59:48;;;;;;;4.35;2.78;;;13.60;90.70;;;;;;5074619;28;20021;-60
2021/07/21 06:02:16;;;;;;;5.68;2.92;;;13.50;90.50;;;;;;5074874;28;20495;-60
2021/07/21 06:04:43;;;;;;;6.38;2.83;;;13.50;91.00;;;;;;5074607;28;20016;-59
2021/07/21 06:07:10;;;;;;;4.25;2.65;;;13.50;91.30;;;;;;5074691;28;20016;-59
2021/07/21 06:09:38;;;;;;;5.18;2.75;;;13.40;91.10;;;;;;5074488;28;20024;-60
2021/07/21 06:12:06;;;;;;;4.95;2.60;;;13.30;91.00;;;;;;5074551;28;20095;-61
2021/07/21 06:14:34;;;;;;;4.65;2.65;;;13.30;91.00;;;;;;5074420;28;20028;-60
2021/07/21 06:17:02;;;;;;;6.32;3.13;;;13.20;92.90;;;;;;5074790;28;20028;-59
2021/07/21 06:19:32;;;;;;;3.13;2.70;;;13.10;92.20;;;;;;5074338;28;20137;-60
2021/07/21 06:22:00;;;;;;;5.22;2.80;;;13.00;91.90;;;;;;5073940;28;20392;-60
2021/07/21 06:24:28;;;;;;;3.35;2.60;;;13.00;91.50;;;;;;5074061;28;20043;-60
2021/07/21 06:26:56;;;;;;;5.93;2.63;;;13.00;91.50;;;;;;5074073;28;20032;-61
2021/07/21 06:29:24;;;;;;;4.60;2.70;;;13.00;91.60;;;;;;5074137;28;20024;-60
2021/07/21 06:31:51;;;;;;;4.40;3.15;;;12.90;92.30;;;;;;5073920;28;20477;-61
2021/07/21 06:34:18;;;;;;;4.50;2.80;;;12.80;92.30;;;;;;5073982;28;20542;-59
2021/07/21 06:36:46;;;;;;;4.22;2.80;;;12.70;92.50;;;;;;5073798;28;20103;-59
2021/07/21 06:39:14;;;;;;;4.18;2.85;;;12.60;92.70;;;;;;5073957;28;20032;-60
2021/07/21 06:41:41;;;;;;;5.30;3.40;;;12.50;92.60;;;;;;5073844;28;20077;-60
2021/07/21 06:44:08;;;;;;;5.20;3.20;;;12.40;93.50;;;;;;5073780;28;20095;-60
2021/07/21 06:46:36;;;;;;;3.75;3.20;;;12.40;93.10;;;;;;5073777;28;20422;-60
2021/07/21 06:49:03;;;;;;;5.70;3.00;;;12.40;93.20;;;;;;5073681;28;20017;-60
2021/07/21 06:51:31;;;;;;;3.88;3.00;;;12.30;93.50;;;;;;5073331;28;20027;-60
2021/07/21 06:53:58;;;;;;;6.10;3.63;;;12.40;93.10;;;;;;5072761;28;20024;-60
2021/07/21 06:56:25;;;;;;;4.22;3.83;;;12.30;93.20;;;;;;5073211;28;20083;-60
2021/07/21 06:58:53;;;;;;;4.43;3.08;;;12.20;94.10;;;;;;5073489;28;20035;-60
2021/07/21 07:01:22;;;;;;;5.93;3.20;;;12.20;93.80;;;;;;5073294;28;20584;-61
2021/07/21 07:03:53;;;;;;;5.60;3.13;;;12.10;94.40;;;;;;5073292;28;20025;-61
2021/07/21 07:06:20;;;;;;;5.32;3.20;;;11.90;94.60;;;;;;5072195;28;20017;-61
2021/07/21 07:08:47;;;;;;;7.22;3.38;;;12.00;94.90;;;;;;5073352;28;20025;-61
2021/07/21 07:11:15;;;;;;;3.80;3.40;;;11.80;95.00;;;;;;5073316;28;20023;-61
2021/07/21 07:13:42;;;;;;;4.70;3.25;;;11.70;95.30;;;;;;5073287;28;20048;-60
2021/07/21 07:16:11;;;;;;;3.92;3.10;;;11.70;95.10;;;;;;5073319;28;20028;-60
2021/07/21 07:18:38;;;;;;;3.83;3.17;;;11.80;95.20;;;;;;5073301;28;20386;-60
2021/07/21 07:21:06;;;;;;;4.90;2.90;;;11.70;95.20;;;;;;5073247;28;20035;-60
2021/07/21 07:23:34;;;;;;;4.93;2.55;;;11.60;95.70;;;;;;5073199;28;20012;-60
2021/07/21 07:26:01;;;;;;;2.95;2.55;;;11.50;96.00;;;;;;5073026;28;20469;-61
2021/07/21 07:28:29;;;;;;;6.32;3.10;;;11.40;96.30;;;;;;5073022;28;20024;-59
2021/07/21 07:30:56;;;;;;;4.97;3.40;;;11.30;96.90;;;;;;5072913;28;20107;-60
2021/07/21 07:33:23;;;;;;;4.18;3.10;;;11.20;97.10;;;;;;5073187;28;20081;-60
2021/07/21 07:35:51;;;;;;;5.70;3.10;;;11.10;98.10;;;;;;5072992;28;20024;-59
2021/07/21 07:38:18;;;;;;;5.97;3.20;;;11.00;98.10;;;;;;5072888;28;20061;-60
2021/07/21 07:40:46;;;;;;;7.13;3.40;;;11.00;98.10;;;;;;5073051;28;20023;-60
2021/07/21 07:43:13;;;;;;;5.07;3.58;;;10.90;98.20;;;;;;5072784;28;20082;-60
2021/07/21 07:45:41;;;;;;;5.13;3.10;;;10.90;98.40;;;;;;5072877;28;20075;-59
2021/07/21 07:48:08;;;;;;;6.80;3.67;;;10.90;98.70;;;;;;5072890;28;20024;-60
2021/07/21 07:50:36;;;;;;;3.97;3.35;;;11.00;98.80;;;;;;5072919;28;20028;-60
2021/07/21 07:53:03;;;;;;;4.57;3.88;;;11.00;99.10;;;;;;5072835;28;20044;-60
2021/07/21 07:55:35;;;;;;;7.88;3.85;;;10.90;99.20;;;;;;5072630;28;20048;-60
2021/07/21 07:58:03;;;;;;;8.07;4.53;;;10.90;99.40;;;;;;5072748;28;20040;-60
2021/07/21 08:00:31;;;;;;;7.57;4.57;;;11.00;99.90;;;;;;5072708;28;20020;-60
2021/07/21 08:02:59;;;;;;;5.35;4.78;;;10.90;99.90;;;;;;5072539;28;20025;-58
2021/07/21 08:05:26;;;;;;;10.55;5.20;;;10.90;99.90;;;;;;5079228;28;20031;-58
2021/07/21 08:07:55;;;;;;;11.35;4.53;;;10.80;99.90;;;;;;5079279;28;20028;-59
2021/07/21 08:10:23;;;;;;;12.57;4.95;;;10.70;99.90;;;;;;5079314;28;20128;-59
2021/07/21 08:12:50;;;;;;;7.88;4.50;;;10.60;99.90;;;;;;5078157;28;20112;-56
2021/07/21 08:15:18;;;;;;;7.55;4.30;;;10.60;99.90;;;;;;5079397;28;20054;-58
2021/07/21 08:17:45;;;;;;;10.20;4.72;;;10.50;99.90;;;;;;5079379;28;20021;-58
2021/07/21 08:20:12;;;;;;;8.13;4.72;;;10.40;99.90;;;;;;5079008;28;20070;-59
2021/07/21 08:22:40;;;;;;;10.43;5.15;;;10.30;99.90;;;;;;5079210;28;20017;-59
2021/07/21 08:25:18;;;;;;;11.82;5.30;;;10.30;99.90;;;;;;5079151;28;20500;-58
2021/07/21 08:27:46;;;;;;;9.65;5.47;;;10.20;99.90;;;;;;5079192;28;20017;-58
2021/07/21 08:30:14;;;;;;;7.90;5.30;;;10.10;99.90;;;;;;5079099;28;20021;-59
2021/07/21 08:32:49;;;;;;;7.40;5.53;;;10.00;99.90;;;;;;5079317;28;20099;-59
2021/07/21 08:35:18;;;;;;;7.78;5.05;;;10.00;99.90;;;;;;5079112;28;20481;-58
2021/07/21 08:37:46;;;;;;;6.50;4.82;;;10.10;99.90;;;;;;5078984;28;20100;-59
2021/07/21 08:40:14;;;;;;;11.10;5.88;;;10.10;99.90;;;;;;5078997;28;20020;-58
2021/07/21 08:42:42;;;;;;;11.70;5.78;;;10.00;99.90;;;;;;5078962;28;20021;-59
2021/07/21 08:45:11;;;;;;;7.85;5.32;;;9.90;99.90;;;;;;5079056;28;20032;-58
2021/07/21 08:47:39;;;;;;;6.95;4.97;;;10.00;99.90;;;;;;5079277;28;20013;-58
2021/07/21 08:50:08;;;;;;;9.00;5.40;;;10.00;99.90;;;;;;5078900;28;20017;-58
2021/07/21 08:52:37;;;;;;;9.13;6.85;;;10.00;99.90;;;;;;5078898;28;20035;-59
2021/07/21 08:55:10;;;;;;;11.50;6.32;;;9.90;99.90;;;;;;5078951;28;20495;-58
2021/07/21 08:57:39;;;;;;;12.38;6.57;;;9.90;99.90;;;;;;5078719;28;20048;-58
2021/07/21 09:00:14;;;;;;;10.20;6.57;;;9.90;99.90;;;;;;5079119;28;20465;-57
2021/07/21 09:02:43;;;;;;;11.73;5.85;;;9.90;99.90;;;;;;5077354;28;20025;-57
2021/07/21 09:05:13;;;;;;;10.90;6.53;;;9.90;99.90;;;;;;5079054;28;20027;-57
2021/07/21 09:07:41;;;;;;;14.20;7.55;;;9.80;99.90;;;;;;5078872;28;20020;-59
2021/07/21 09:10:14;;;;;;;10.15;5.93;;;9.80;99.90;;;;;;5078814;28;20021;-60
2021/07/21 09:12:45;;;;;;;14.85;7.95;;;9.80;99.90;;;;;;5078923;28;20028;-59
2021/07/21 09:15:17;;;;;;;10.48;6.10;;;9.90;99.90;;;;;;5077240;28;20046;-57
2021/07/21 09:18:12;;;;;;;8.45;5.97;;;9.90;99.90;;;;;;5075563;28;20025;-59
2021/07/21 09:21:06;;;;;;;10.55;6.50;;;9.90;99.90;;;;;;5075515;28;20104;-59
2021/07/21 09:23:45;;;;;;;13.63;6.97;;;9.90;99.90;;;;;;5075313;28;20036;-60
2021/07/21 09:26:32;;;;;;;12.23;7.13;;;9.80;99.90;;;;;;5074162;28;20029;-60
2021/07/21 09:29:01;;;;;;;9.52;7.30;;;9.70;99.90;;;;;;5075486;28;20108;-59
2021/07/21 09:31:39;;;;;;;12.73;7.43;;;9.60;99.90;;;;;;5075573;28;20064;-58
2021/07/21 09:34:18;;;;;;;9.73;7.10;;;9.40;99.90;;;;;;5075617;28;20024;-58
2021/07/21 09:36:45;;;;;;;10.40;6.95;;;9.30;99.90;;;;;;5075441;28;20052;-58
2021/07/21 09:39:15;;;;;;;12.13;7.45;;;9.30;99.90;;;;;;5075103;28;20024;-59
2021/07/21 09:41:52;;;;;;;10.68;8.07;;;9.20;99.90;;;;;;5075045;28;20485;-59
2021/07/21 09:44:31;;;;;;;11.00;7.70;;;9.10;99.90;;;;;;5075082;28;20074;-59
2021/07/21 09:47:22;;;;;;;8.15;5.57;;;9.10;99.90;;;;;;5075181;28;20473;-57
2021/07/21 09:49:50;;;;;;;10.65;6.65;;;9.40;99.90;;;;;;5075024;28;20102;-59
2021/07/21 09:52:27;;;;;;;10.75;6.18;;;9.40;99.90;;;;;;5075126;28;20033;-61
2021/07/21 09:55:15;;;;;;;8.27;5.40;;;9.40;99.90;;;;;;5075173;28;20477;-57
2021/07/21 09:57:44;;;;;;;11.27;6.80;;;9.40;99.90;;;;;;5074717;28;20519;-59
2021/07/21 10:00:29;;;;;;;9.48;4.95;;;9.40;99.90;;;;;;5074784;28;20469;-59
2021/07/21 10:03:22;;;;;;;10.38;5.53;;;9.30;99.90;;;;;;5074732;28;20039;-60
2021/07/21 10:06:01;;;;;;;10.13;6.57;;;9.20;99.90;;;;;;5072907;28;20040;-59
2021/07/21 10:08:44;;;;;;;11.65;7.47;;;9.20;99.90;;;;;;5074585;28;20024;-61
2021/07/21 10:11:27;;;;;;;12.35;7.00;;;9.10;99.90;;;;;;5074631;28;20016;-60
2021/07/21 10:14:02;;;;;;;9.35;6.55;;;9.00;99.90;;;;;;5074543;28;20107;-60
2021/07/21 10:16:47;;;;;;;12.85;7.30;;;8.90;99.90;;;;;;5074523;28;20374;-60
2021/07/21 10:19:25;;;;;;;9.52;6.72;;;8.80;99.90;;;;;;5074475;28;20055;-61
2021/07/21 10:22:03;;;;;;;11.00;7.45;;;8.80;99.90;;;;;;5074336;28;20544;-59
2021/07/21 10:24:34;;;;;;;11.52;7.03;;;8.70;99.90;;;;;;5074469;28;20025;-60
2021/07/21 10:27:03;;;;;;;12.80;7.57;;;8.70;99.90;;;;;;5073167;28;20033;-59
2021/07/21 10:29:31;;;;;;;8.65;7.75;;;8.70;99.90;;;;;;5073988;28;20024;-59
2021/07/21 10:31:58;;;;;;;7.22;6.53;;;8.70;99.90;;;;;;5074102;28;20052;-60
2021/07/21 10:34:26;;;;;;;12.68;7.80;;;8.70;99.90;;;;;;5074078;28;20477;-60
2021/07/21 10:36:54;;;;;;;11.23;7.45;;;8.60;99.90;;;;;;5073966;28;20025;-59
2021/07/21 10:39:31;;;;;;;10.30;7.38;;;8.70;99.90;;;;;;5074006;28;20453;-58
2021/07/21 10:42:04;;;;;;;9.88;7.13;;;8.70;99.90;;;;;;5073949;28;20119;-60
2021/07/21 10:44:31;;;;;;;10.55;7.07;;;8.60;99.90;;;;;;5073902;28;20094;-60
2021/07/21 10:46:59;;;;;;;10.88;7.50;;;8.70;99.90;;;;;;5073815;28;20388;-61
2021/07/21 10:49:37;;;;;;;9.52;7.63;;;8.70;99.90;;;;;;5073740;28;20521;-60
2021/07/21 10:55:07;;;;;;;9.38;7.18;;;8.70;99.90;;;;;;5073662;28;20033;-61
2021/07/21 11:00:25;;;;;;;9.13;7.75;;;8.60;99.90;;;;;;5073860;28;20039;-60
2021/07/21 11:02:53;;;;;;;12.80;7.35;;;8.50;99.90;;;;;;5073353;28;20032;-60
2021/07/21 11:05:40;;;;;;;10.80;7.35;;;8.50;99.90;;;;;;5072532;28;20069;-58
2021/07/21 11:08:18;;;;;;;7.90;7.00;;;8.50;99.90;;;;;;5073439;28;20023;-59
2021/07/21 11:10:48;;;;;;;10.60;7.10;;;8.50;99.90;;;;;;5073355;28;20030;-60
2021/07/21 11:13:30;;;;;;;12.95;7.22;;;8.50;99.90;;;;;;5073286;28;20032;-60
2021/07/21 11:16:01;;;;;;;9.88;6.97;;;8.40;99.90;;;;;;5073412;28;20044;-60
2021/07/21 11:18:28;;;;;;;11.07;6.97;;;8.40;99.90;;;;;;5073657;28;20028;-59
2021/07/21 11:21:16;;;;;;;9.23;6.30;;;8.40;99.90;;;;;;5073402;28;20393;-61
2021/07/21 11:23:48;;;;;;;9.20;7.18;;;8.60;99.90;;;;;;5073286;28;20028;-60
2021/07/21 11:26:51;;;;;;;10.75;7.18;;;8.60;99.90;;;;;;5073201;28;20381;-60
2021/07/21 11:29:24;;;;;;;11.13;7.65;;;8.50;99.90;;;;;;5051400;28;20413;-60
2021/07/21 11:31:55;;;;;;;9.35;7.10;;;8.50;99.90;;;;;;5073072;28;20017;-62
2021/07/21 11:34:39;;;;;;;7.75;6.95;;;8.50;99.90;;;;;;5073060;28;20035;-60
2021/07/21 11:37:20;;;;;;;10.10;6.95;;;8.40;99.90;;;;;;5073209;28;20464;-61
2021/07/21 11:39:56;;;;;;;10.50;8.18;;;8.40;99.90;;;;;;5072675;28;20021;-61
2021/07/21 11:42:26;;;;;;;11.07;7.75;;;8.30;99.90;;;;;;5072791;28;20044;-61
2021/07/21 11:45:21;;;;;;;10.95;7.68;;;8.30;99.90;;;;;;5072897;28;20020;-60
2021/07/21 11:48:04;;;;;;;10.70;8.10;;;8.40;99.90;;;;;;5067920;28;20029;-61
2021/07/21 11:50:33;;;;;;;12.63;8.18;;;8.40;99.90;;;;;;5072881;28;20029;-61
2021/07/21 11:53:10;;;;;;;12.20;7.93;;;8.30;99.90;;;;;;5072995;28;20074;-61
2021/07/21 11:55:38;;;;;;;9.57;7.75;;;8.40;99.90;;;;;;5072695;28;20546;-62
2021/07/21 11:58:14;;;;;;;10.57;7.15;;;8.40;99.90;;;;;;5072788;28;20032;-61
2021/07/21 12:00:49;;;;;;;9.88;7.30;;;8.40;99.90;;;;;;5072791;28;20029;-62
2021/07/21 12:03:16;;;;;;;10.82;7.30;;;8.40;99.90;;;;;;5071293;28;20024;-62
2021/07/21 12:05:56;;;;;;;8.45;6.88;;;8.30;99.90;;;;;;5072723;28;20021;-61
2021/07/21 12:08:24;;;;;;;12.00;7.63;;;8.30;99.90;;;;;;5072891;28;20031;-62
2021/07/21 12:10:52;;;;;;;11.07;7.65;;;8.10;99.90;;;;;;5071444;28;20024;-61
2021/07/21 12:13:22;;;;;;;10.77;7.55;;;8.10;99.90;;;;;;5072658;28;20031;-61
2021/07/21 12:16:01;;;;;;;9.05;7.82;;;8.20;99.90;;;;;;5072775;28;20119;-62
2021/07/21 12:18:29;;;;;;;11.05;8.10;;;8.20;99.90;;;;;;5072545;28;20424;-62
2021/07/21 12:21:06;;;;;;;14.73;7.70;;;8.30;99.90;;;;;;5072736;28;20024;-62
2021/07/21 12:23:34;;;;;;;8.98;7.25;;;8.30;99.90;;;;;;5072995;28;20036;-62
2021/07/21 12:26:09;;;;;;;9.98;7.72;;;8.30;99.90;;;;;;5072606;28;20066;-61
2021/07/21 12:28:37;;;;;;;9.07;8.15;;;8.30;99.90;;;;;;5072377;28;20068;-62
2021/07/21 12:31:04;;;;;;;12.48;7.72;;;8.30;99.90;;;;;;5072460;28;20017;-60
2021/07/21 12:33:32;;;;;;;10.10;7.10;;;8.20;99.90;;;;;;5072555;28;20089;-62
2021/07/21 12:36:09;;;;;;;10.40;6.95;;;8.20;99.90;;;;;;5071097;28;20086;-62
2021/07/21 12:38:41;;;;;;;9.70;8.02;;;8.30;99.90;;;;;;5072364;28;20085;-62
2021/07/21 12:41:12;;;;;;;10.35;7.60;;;8.30;99.90;;;;;;5072477;28;20370;-63
2021/07/21 12:43:40;;;;;;;9.63;7.53;;;8.20;99.90;;;;;;5072460;28;20048;-61
2021/07/21 12:46:17;;;;;;;11.10;7.80;;;8.20;99.90;;;;;;5072527;28;20095;-62
2021/07/21 12:48:46;;;;;;;8.50;7.13;;;8.20;99.90;;;;;;5072521;28;20021;-62
2021/07/21 12:51:15;;;;;;;10.95;7.13;;;8.20;99.90;;;;;;5074050;28;20023;-62
2021/07/21 12:53:44;;;;;;;8.68;7.40;;;8.10;99.90;;;;;;5076126;28;20028;-61
2021/07/21 12:56:14;;;;;;;8.07;7.38;;;8.10;99.90;;;;;;5075829;28;20523;-60
2021/07/21 12:58:41;;;;;;;7.10;6.50;;;8.00;99.90;;;;;;5076089;28;20024;-61
2021/07/21 13:01:09;;;;;;;7.57;6.35;;;8.20;99.90;;;;;;5076053;28;20020;-61
2021/07/21 13:03:47;;;;;;;8.10;7.20;;;8.20;99.90;;;;;;5075899;28;20031;-61
2021/07/21 13:06:23;;;;;;;6.63;6.13;;;8.20;99.90;;;;;;5074997;28;20041;-61
2021/07/21 13:08:51;;;;;;;8.07;6.80;;;8.10;99.90;;;;;;5075815;28;20016;-62
2021/07/21 13:11:20;;;;;;;8.07;7.28;;;8.10;99.90;;;;;;5075806;28;20021;-63
2021/07/21 13:13:53;;;;;;;7.40;6.80;;;8.00;99.90;;;;;;5075757;28;20032;-61
2021/07/21 13:16:33;;;;;;;8.95;7.07;;;8.00;99.90;;;;;;5075555;28;20039;-61